Time;durP1;ratioP1;P1;durP2;ratioP2;P2;SDS_P1;SDS_P2;PMS_P1;PMS_P2;Temp;Humidity;BMP_temperature;BMP_pressure;BME280_temperature;BME280_humidity;BME280_pressure;Samples;Min_cycle;Max_cycle;Signal;HPM_P1;HPM_P2
2023/05/26 00:01:25;;;;;;;;;;;;;;;;;;5111972;27;19958;-69
2023/05/26 00:05:25;;;;;;;;;;;;;;;;;;5092179;27;20257;-69
2023/05/26 00:09:14;;;;;;;;;;;;;;;;;;5091113;27;19927;-68
2023/05/26 00:11:41;;;;;;;;;;;;;;;;;;5091348;28;20410;-68
2023/05/26 00:14:06;;;;;;;;;;;;;;;;;;5091317;28;20372;-68
2023/05/26 00:19:40;;;;;;;;;;;;;;;;;;5153028;27;19915;-68
2023/05/26 00:22:06;;;;;;;;;;;;;;;;;;5134406;27;19918;-69
2023/05/26 00:24:32;;;;;;;;;;;;;;;;;;5152449;27;19908;-69
2023/05/26 00:26:58;;;;;;;;;;;;;;;;;;5153381;27;19907;-69
2023/05/26 00:29:24;;;;;;;;;;;;;;;;;;5152343;27;19961;-69
2023/05/26 00:31:50;;;;;;;;;;;;;;;;;;5152708;27;20427;-68
2023/05/26 00:35:40;;;;;;;;;;;;;;;;;;5092124;27;19913;-69
2023/05/26 00:38:06;;;;;;;;;;;;;;;;;;5090917;28;20428;-68
2023/05/26 00:40:35;;;;;;;;;;;;;;;;;;5090271;28;19954;-68
2023/05/26 00:43:01;;;;;;;;;;;;;;;;;;5091595;28;19944;-69
2023/05/26 00:45:27;;;;;;;;;;;;;;;;;;5090820;28;19916;-68
2023/05/26 00:47:53;;;;;;;;;;;;;;;;;;5091211;28;20360;-68
2023/05/26 00:51:02;;;;;;;;;;;;;;;;;;5097864;27;2147488;-69
2023/05/26 00:53:28;;;;;;;;;;;;;;;;;;5173788;27;20002;-68
2023/05/26 00:55:54;;;;;;;;;;;;;;;;;;5155007;27;20049;-69
2023/05/26 01:00:20;;;;;;;;;;;;;;;;;;5091531;27;19923;-68
2023/05/26 01:03:03;;;;;;;;;;;;;;;;;;5112544;27;20275;-68
2023/05/26 01:05:29;;;;;;;;;;;;;;;;;;5110317;28;19918;-69
2023/05/26 01:12:11;;;;;;;;;;;;;;;;;;5091523;28;20299;-67
2023/05/26 01:20:38;;;;;;;;;;;;;;;;;;5090965;28;19922;-68
2023/05/26 01:23:03;;;;;;;;;;;;;;;;;;5090044;28;19922;-69
2023/05/26 01:27:56;;;;;;;;;;;;;;;;;;5091699;27;19919;-69
2023/05/26 01:30:22;;;;;;;;;;;;;;;;;;5091397;28;20350;-69
2023/05/26 01:32:48;;;;;;;;;;;;;;;;;;5089621;28;19908;-69
2023/05/26 01:35:14;;;;;;;;;;;;;;;;;;5091293;28;19913;-69
2023/05/26 01:37:41;;;;;;;;;;;;;;;;;;5091225;28;19908;-69
2023/05/26 01:41:43;;;;;;;;;;;;;;;;;;5091043;27;19916;-67
2023/05/26 01:44:10;;;;;;;;;;;;;;;;;;5091348;28;20003;-67
2023/05/26 01:46:36;;;;;;;;;;;;;;;;;;5090903;28;19908;-67
2023/05/26 01:49:02;;;;;;;;;;;;;;;;;;5091286;28;19908;-68
2023/05/26 01:51:45;;;;;;;;;;;;;;;;;;5091471;27;19923;-67
2023/05/26 01:56:32;;;;;;;;;;;;;;;;;;5092199;27;20390;-67
2023/05/26 02:00:46;;;;;;;;;;;;;;;;;;5091595;27;19923;-67
2023/05/26 02:03:13;;;;;;;;;;;;;;;;;;5091607;28;19912;-68
2023/05/26 02:05:38;;;;;;;;;;;;;;;;;;5091594;28;19950;-69
2023/05/26 02:08:04;;;;;;;;;;;;;;;;;;5090883;28;19960;-68
2023/05/26 02:10:30;;;;;;;;;;;;;;;;;;5091174;28;19908;-68
2023/05/26 02:12:56;;;;;;;;;;;;;;;;;;5091131;28;19916;-69
2023/05/26 02:15:22;;;;;;;;;;;;;;;;;;5090747;28;19999;-69
2023/05/26 02:17:48;;;;;;;;;;;;;;;;;;5091051;28;19910;-67
2023/05/26 02:20:14;;;;;;;;;;;;;;;;;;5090966;28;19920;-68
2023/05/26 02:24:28;;;;;;;;;;;;;;;;;;5092059;27;19912;-69
2023/05/26 02:29:27;;;;;;;;;;;;;;;;;;5111317;27;19916;-68
2023/05/26 02:31:53;;;;;;;;;;;;;;;;;;5111766;28;20355;-68
2023/05/26 02:37:01;;;;;;;;;;;;;;;;;;5091294;27;20295;-68
2023/05/26 02:39:50;;;;;;;;;;;;;;;;;;5112134;27;19916;-67
2023/05/26 02:42:16;;;;;;;;;;;;;;;;;;5111696;28;20007;-67
2023/05/26 02:45:05;;;;;;;;;;;;;;;;;;5091073;27;19922;-68
2023/05/26 02:47:31;;;;;;;;;;;;;;;;;;5091376;28;19966;-68
2023/05/26 02:50:29;;;;;;;;;;;;;;;;;;5144271;27;20302;-68
2023/05/26 02:55:10;;;;;;;;;;;;;;;;;;5112224;27;19916;-67
2023/05/26 02:57:36;;;;;;;;;;;;;;;;;;5111472;28;19919;-67
2023/05/26 03:01:32;;;;;;;;;;;;;;;;;;5091661;27;20295;-67
2023/05/26 03:03:58;;;;;;;;;;;;;;;;;;5090914;28;19913;-67
2023/05/26 03:06:24;;;;;;;;;;;;;;;;;;5091255;28;19908;-68
2023/05/26 03:08:50;;;;;;;;;;;;;;;;;;5091260;28;19999;-68
2023/05/26 03:11:16;;;;;;;;;;;;;;;;;;5090783;28;19963;-68
2023/05/26 03:13:43;;;;;;;;;;;;;;;;;;5091037;28;19912;-67
2023/05/26 03:18:27;;;;;;;;;;;;;;;;;;5111417;27;19916;-67
2023/05/26 03:20:53;;;;;;;;;;;;;;;;;;5111638;28;20031;-67
2023/05/26 03:23:19;;;;;;;;;;;;;;;;;;5111603;28;19961;-67
2023/05/26 03:25:45;;;;;;;;;;;;;;;;;;5111257;28;20032;-68
2023/05/26 03:28:11;;;;;;;;;;;;;;;;;;5111676;28;19946;-68
2023/05/26 03:30:36;;;;;;;;;;;;;;;;;;5111492;28;20287;-68
2023/05/26 03:33:02;;;;;;;;;;;;;;;;;;5111061;28;19958;-68
2023/05/26 03:35:28;;;;;;;;;;;;;;;;;;5111411;28;19908;-68
2023/05/26 03:38:45;;;;;;;;;;;;;;;;;;5111861;27;20376;-68
2023/05/26 03:42:14;;;;;;;;;;;;;;;;;;5174189;27;19918;-72
2023/05/26 03:44:40;;;;;;;;;;;;;;;;;;5173645;27;19915;-67
2023/05/26 03:47:06;;;;;;;;;;;;;;;;;;5173432;27;20405;-69
2023/05/26 03:49:32;;;;;;;;;;;;;;;;;;5173551;27;20338;-69
2023/05/26 03:53:49;;;;;;;;;;;;;;;;;;5111448;27;19922;-69
2023/05/26 03:56:15;;;;;;;;;;;;;;;;;;5111896;28;19912;-68
2023/05/26 03:58:41;;;;;;;;;;;;;;;;;;5111813;28;19908;-68
2023/05/26 04:02:33;;;;;;;;;;;;;;;;;;5050802;28;19923;-67
2023/05/26 04:06:00;;;;;;;;;;;;;;;;;;5111864;27;19916;-68
2023/05/26 04:10:42;;;;;;;;;;;;;;;;;;5091635;27;19916;-67
2023/05/26 04:14:50;;;;;;;;;;;;;;;;;;5111439;27;19916;-67
2023/05/26 04:17:16;;;;;;;;;;;;;;;;;;5110456;28;19912;-67
2023/05/26 04:20:34;;;;;;;;;;;;;;;;;;5091462;28;19922;-68
2023/05/26 04:23:00;;;;;;;;;;;;;;;;;;5091013;28;19951;-68
2023/05/26 04:25:27;;;;;;;;;;;;;;;;;;5091275;28;19989;-68
2023/05/26 04:28:59;;;;;;;;;;;;;;;;;;5091281;27;19923;-68
2023/05/26 04:31:28;;;;;;;;;;;;;;;;;;5091405;28;20007;-68
2023/05/26 04:33:56;;;;;;;;;;;;;;;;;;5091683;28;19915;-67
2023/05/26 04:37:26;;;;;;;;;;;;;;;;;;5152522;27;20389;-69
2023/05/26 04:39:52;;;;;;;;;;;;;;;;;;5152798;27;20328;-69
2023/05/26 04:42:19;;;;;;;;;;;;;;;;;;5152939;27;19914;-68
2023/05/26 04:44:45;;;;;;;;;;;;;;;;;;5152454;27;19914;-69
2023/05/26 04:49:34;;;;;;;;;;;;;;;;;;5111587;27;19916;-69
2023/05/26 04:54:21;;;;;;;;;;;;;;;;;;5092214;27;20272;-68
2023/05/26 04:56:47;;;;;;;;;;;;;;;;;;5090870;28;20013;-68
2023/05/26 04:59:13;;;;;;;;;;;;;;;;;;5091121;28;19916;-68
2023/05/26 05:05:21;;;;;;;;;;;;;;;;;;5089118;27;19939;-67
2023/05/26 05:08:04;;;;;;;;;;;;;;;;;;5110377;27;19916;-68
2023/05/26 05:10:30;;;;;;;;;;;;;;;;;;5111014;28;19919;-69
2023/05/26 05:12:55;;;;;;;;;;;;;;;;;;5111322;28;19954;-69
2023/05/26 05:15:22;;;;;;;;;;;;;;;;;;5111959;28;19961;-69
2023/05/26 05:17:48;;;;;;;;;;;;;;;;;;5111145;28;19908;-67
2023/05/26 05:21:49;;;;;;;;;;;;;;;;;;5111873;27;20303;-67
2023/05/26 05:24:15;;;;;;;;;;;;;;;;;;5111577;28;20007;-68
2023/05/26 05:28:35;;;;;;;;;;;;;;;;;;5114423;27;19915;-68
2023/05/26 05:31:01;;;;;;;;;;;;;;;;;;5131844;27;20331;-67
2023/05/26 05:33:27;;;;;;;;;;;;;;;;;;5130290;28;20001;-67
2023/05/26 05:35:53;;;;;;;;;;;;;;;;;;5131760;27;19998;-67
2023/05/26 05:38:19;;;;;;;;;;;;;;;;;;5131188;27;20323;-67
2023/05/26 05:40:45;;;;;;;;;;;;;;;;;;5109168;27;19957;-67
2023/05/26 05:43:21;;;;;;;;;;;;;;;;;;5111216;27;19916;-66
2023/05/26 05:50:13;;;;;;;;;;;;;;;;;;5107392;27;19916;-66
2023/05/26 05:52:39;;;;;;;;;;;;;;;;;;5107693;28;19965;-67
2023/05/26 05:55:36;;;;;;;;;;;;;;;;;;5085755;27;19927;-68
2023/05/26 06:00:33;;;;;;;;;;;;;;;;;;5122700;27;19916;-67
2023/05/26 06:02:59;;;;;;;;;;;;;;;;;;5129752;27;19916;-68
2023/05/26 06:05:25;;;;;;;;;;;;;;;;;;5129852;27;20304;-68
2023/05/26 06:07:51;;;;;;;;;;;;;;;;;;5120221;28;19977;-68
2023/05/26 06:10:17;;;;;;;;;;;;;;;;;;5109434;28;19908;-68
2023/05/26 06:15:15;;;;;;;;;;;;;;;;;;5090287;28;20407;-67
2023/05/26 06:17:41;;;;;;;;;;;;;;;;;;5090334;28;19913;-67
2023/05/26 06:20:07;;;;;;;;;;;;;;;;;;5087447;28;20538;-67
2023/05/26 06:22:36;;;;;;;;;;;;;;;;;;5087000;28;19913;-67
2023/05/26 06:25:02;;;;;;;;;;;;;;;;;;5088374;28;19912;-67
2023/05/26 06:27:28;;;;;;;;;;;;;;;;;;5088806;28;19908;-67
2023/05/26 06:29:54;;;;;;;;;;;;;;;;;;5088582;28;19921;-67
2023/05/26 06:34:30;;;;;;;;;;;;;;;;;;5111170;27;19916;-66
2023/05/26 06:41:20;;;;;;;;;;;;;;;;;;5063290;28;19921;-66
2023/05/26 06:44:36;;;;;;;;;;;;;;;;;;5090281;28;19922;-67
2023/05/26 06:50:37;;;;;;;;;;;;;;;;;;5087410;27;19919;-67
2023/05/26 06:55:30;;;;;;;;;;;;;;;;;;5088705;27;19913;-67
2023/05/26 06:57:56;;;;;;;;;;;;;;;;;;5087632;28;19935;-66
2023/05/26 07:00:25;;;;;;;;;;;;;;;;;;5089969;28;19908;-68
2023/05/26 07:06:33;;;;;;;;;;;;;;;;;;5090336;27;19927;-67
2023/05/26 07:08:59;;;;;;;;;;;;;;;;;;5090245;28;19913;-67
2023/05/26 07:12:48;;;;;;;;;;;;;;;;;;5030112;27;4017744;-67
2023/05/26 07:15:15;;;;;;;;;;;;;;;;;;5153661;27;19911;-67
2023/05/26 07:21:47;;;;;;;;;;;;;;;;;;5129233;27;19922;-66
2023/05/26 07:25:48;;;;;;;;;;;;;;;;;;5067947;28;19923;-66
2023/05/26 07:28:14;;;;;;;;;;;;;;;;;;5067110;28;19932;-68
2023/05/26 07:30:54;;;;;;;;;;;;;;;;;;5087229;27;20589;-71
2023/05/26 07:33:20;;;;;;;;;;;;;;;;;;5088721;28;19919;-68
2023/05/26 07:38:38;;;;;;;;;;;;;;;;;;5171611;27;19911;-67
2023/05/26 07:41:04;;;;;;;;;;;;;;;;;;5170909;27;20343;-68
2023/05/26 07:47:33;;;;;;;;;;;;;;;;;;5089211;28;19912;-67
2023/05/26 07:51:28;;;;;;;;;;;;;;;;;;5088829;27;19920;-68
2023/05/26 07:53:54;;;;;;;;;;;;;;;;;;5088349;28;19912;-68
2023/05/26 08:00:17;;;;;;;;;;;;;;;;;;5149305;27;19916;-67
2023/05/26 08:02:43;;;;;;;;;;;;;;;;;;5136947;27;20006;-67
2023/05/26 08:05:09;;;;;;;;;;;;;;;;;;5128828;28;19965;-67
2023/05/26 08:16:30;;;;;;;;;;;;;;;;;;5151136;27;20002;-67
2023/05/26 08:19:35;;;;;;;;;;;;;;;;;;5150190;27;19916;-67
2023/05/26 08:22:01;;;;;;;;;;;;;;;;;;5150188;27;20205;-67
2023/05/26 08:26:51;;;;;;;;;;;;;;;;;;5088050;27;19919;-67
2023/05/26 08:29:17;;;;;;;;;;;;;;;;;;5088689;28;20395;-67
2023/05/26 08:32:59;;;;;;;;;;;;;;;;;;5110041;27;19920;-67
2023/05/26 08:37:05;;;;;;;;;;;;;;;;;;5089440;28;19912;-67
2023/05/26 08:39:31;;;;;;;;;;;;;;;;;;5087288;28;19912;-67
2023/05/26 08:43:22;;;;;;;;;;;;;;;;;;5076335;27;2345892;-67
2023/05/26 08:45:48;;;;;;;;;;;;;;;;;;5147364;27;19912;-67
2023/05/26 08:55:10;;;;;;;;;;;;;;;;;;5066079;28;20390;-68
2023/05/26 08:57:36;;;;;;;;;;;;;;;;;;5065322;28;20277;-67
2023/05/26 09:02:36;;;;;;;;;;;;;;;;;;5148822;27;20173;-68
2023/05/26 09:05:01;;;;;;;;;;;;;;;;;;5145145;27;20561;-68
2023/05/26 09:07:28;;;;;;;;;;;;;;;;;;5138640;27;20006;-68
2023/05/26 09:09:54;;;;;;;;;;;;;;;;;;5127328;28;19998;-68
2023/05/26 09:16:47;;;;;;;;;;;;;;;;;;5143650;27;19922;-67
2023/05/26 09:19:14;;;;;;;;;;;;;;;;;;5127194;27;20006;-67
2023/05/26 09:23:38;;;;;;;;;;;;;;;;;;5064043;27;2410026;-68
2023/05/26 09:26:04;;;;;;;;;;;;;;;;;;5130943;27;20329;-67
2023/05/26 09:29:49;;;;;;;;;;;;;;;;;;5127937;27;19920;-67
2023/05/26 09:32:15;;;;;;;;;;;;;;;;;;5130094;28;20007;-67
2023/05/26 09:34:51;;;;;;;;;;;;;;;;;;5109973;27;19912;-67
2023/05/26 09:39:39;;;;;;;;;;;;;;;;;;5110850;27;19916;-67
2023/05/26 09:42:06;;;;;;;;;;;;;;;;;;5111249;28;19912;-67
2023/05/26 09:46:02;;;;;;;;;;;;;;;;;;5105161;27;19916;-69
2023/05/26 09:51:03;;;;;;;;;;;;;;;;;;5146981;27;19911;-68
2023/05/26 09:53:29;;;;;;;;;;;;;;;;;;5147553;27;19915;-69
2023/05/26 09:58:08;;;;;;;;;;;;;;;;;;5085233;27;19919;-68
2023/05/26 10:00:34;;;;;;;;;;;;;;;;;;5085528;28;20016;-68
2023/05/26 10:03:03;;;;;;;;;;;;;;;;;;5086141;28;19916;-68
2023/05/26 10:05:29;;;;;;;;;;;;;;;;;;5086549;28;20003;-67
2023/05/26 10:08:39;;;;;;;;;;;;;;;;;;5132445;27;19916;-67
2023/05/26 10:11:22;;;;;;;;;;;;;;;;;;5103618;27;20020;-67
2023/05/26 10:13:48;;;;;;;;;;;;;;;;;;5104315;28;19912;-68
2023/05/26 10:16:14;;;;;;;;;;;;;;;;;;5106502;28;20318;-68
2023/05/26 10:18:40;;;;;;;;;;;;;;;;;;5108303;28;19915;-68
2023/05/26 10:26:07;;;;;;;;;;;;;;;;;;5150716;27;19919;-68
2023/05/26 10:29:13;;;;;;;;;;;;;;;;;;5087804;28;19913;-69
2023/05/26 10:31:40;;;;;;;;;;;;;;;;;;5089281;28;20318;-70
2023/05/26 10:34:06;;;;;;;;;;;;;;;;;;5087788;28;20353;-68
2023/05/26 10:36:34;;;;;;;;;;;;;;;;;;5087952;28;19931;-68
2023/05/26 10:39:00;;;;;;;;;;;;;;;;;;5088686;28;19991;-68
2023/05/26 10:41:26;;;;;;;;;;;;;;;;;;5087514;28;20010;-70
2023/05/26 10:43:52;;;;;;;;;;;;;;;;;;5087819;28;19940;-68
2023/05/26 10:46:18;;;;;;;;;;;;;;;;;;5089819;28;20261;-68
2023/05/26 10:48:44;;;;;;;;;;;;;;;;;;5089491;28;20436;-70
2023/05/26 10:51:10;;;;;;;;;;;;;;;;;;5089980;28;20327;-70
2023/05/26 10:54:06;;;;;;;;;;;;;;;;;;5152185;27;19916;-68
2023/05/26 10:56:32;;;;;;;;;;;;;;;;;;5152063;27;19911;-69
2023/05/26 10:58:58;;;;;;;;;;;;;;;;;;5132975;27;19907;-69
2023/05/26 11:01:24;;;;;;;;;;;;;;;;;;5152122;27;19953;-68
2023/05/26 11:03:50;;;;;;;;;;;;;;;;;;5150559;27;20199;-68
2023/05/26 11:06:16;;;;;;;;;;;;;;;;;;5151598;27;19919;-69
2023/05/26 11:08:42;;;;;;;;;;;;;;;;;;5134717;27;19907;-69
2023/05/26 11:11:08;;;;;;;;;;;;;;;;;;5130312;28;20002;-68
2023/05/26 11:13:34;;;;;;;;;;;;;;;;;;5130553;28;19916;-68
2023/05/26 11:16:00;;;;;;;;;;;;;;;;;;5129510;27;19915;-68
2023/05/26 11:18:26;;;;;;;;;;;;;;;;;;5151315;27;19956;-69
2023/05/26 11:20:52;;;;;;;;;;;;;;;;;;5150620;27;19947;-70
2023/05/26 11:23:18;;;;;;;;;;;;;;;;;;5149658;27;19907;-69
2023/05/26 11:25:46;;;;;;;;;;;;;;;;;;5131327;27;19907;-69
2023/05/26 11:28:17;;;;;;;;;;;;;;;;;;5150728;27;19915;-69
2023/05/26 11:30:44;;;;;;;;;;;;;;;;;;5149074;27;19914;-70
2023/05/26 11:33:10;;;;;;;;;;;;;;;;;;5147477;27;19916;-69
2023/05/26 11:35:37;;;;;;;;;;;;;;;;;;5148390;27;19919;-69
2023/05/26 11:38:03;;;;;;;;;;;;;;;;;;5148935;27;19908;-70
2023/05/26 11:40:28;;;;;;;;;;;;;;;;;;5149378;27;19930;-69
2023/05/26 11:42:54;;;;;;;;;;;;;;;;;;5147730;27;20367;-69
2023/05/26 11:45:20;;;;;;;;;;;;;;;;;;5129791;27;20435;-70
2023/05/26 11:47:46;;;;;;;;;;;;;;;;;;5148258;27;19933;-70
2023/05/26 11:50:12;;;;;;;;;;;;;;;;;;5145740;27;20010;-70
2023/05/26 11:52:38;;;;;;;;;;;;;;;;;;5147435;27;19927;-70
2023/05/26 11:55:04;;;;;;;;;;;;;;;;;;5150062;27;19990;-70
2023/05/26 11:57:32;;;;;;;;;;;;;;;;;;5149608;27;19912;-69
2023/05/26 11:59:58;;;;;;;;;;;;;;;;;;5148127;27;19935;-69
2023/05/26 12:02:24;;;;;;;;;;;;;;;;;;5148973;27;19957;-69
2023/05/26 12:04:50;;;;;;;;;;;;;;;;;;5135147;27;20313;-70
2023/05/26 12:07:16;;;;;;;;;;;;;;;;;;5112602;27;19915;-68
2023/05/26 12:09:42;;;;;;;;;;;;;;;;;;5113618;28;19947;-69
2023/05/26 12:12:08;;;;;;;;;;;;;;;;;;5114497;28;19920;-69
2023/05/26 12:14:34;;;;;;;;;;;;;;;;;;5097395;28;19937;-69
2023/05/26 12:17:00;;;;;;;;;;;;;;;;;;5115901;28;19915;-69
2023/05/26 12:19:27;;;;;;;;;;;;;;;;;;5115207;28;19915;-68
2023/05/26 12:21:55;;;;;;;;;;;;;;;;;;5116146;28;20348;-69
2023/05/26 12:24:21;;;;;;;;;;;;;;;;;;5116481;28;19915;-69
2023/05/26 12:26:47;;;;;;;;;;;;;;;;;;5115693;28;20339;-68
2023/05/26 12:29:13;;;;;;;;;;;;;;;;;;5114366;28;20268;-68
2023/05/26 12:31:41;;;;;;;;;;;;;;;;;;5116145;28;19915;-70
2023/05/26 12:34:07;;;;;;;;;;;;;;;;;;5112233;28;19915;-69
2023/05/26 12:36:33;;;;;;;;;;;;;;;;;;5114626;28;20006;-69
2023/05/26 12:38:59;;;;;;;;;;;;;;;;;;5095853;28;19908;-68
2023/05/26 12:43:42;;;;;;;;;;;;;;;;;;5067550;28;20075;-68
2023/05/26 12:46:08;;;;;;;;;;;;;;;;;;5066990;28;19913;-68
2023/05/26 12:48:34;;;;;;;;;;;;;;;;;;5066149;28;19963;-69
2023/05/26 12:51:01;;;;;;;;;;;;;;;;;;5066922;28;20464;-69
2023/05/26 12:53:27;;;;;;;;;;;;;;;;;;5066574;28;19987;-68
2023/05/26 12:55:53;;;;;;;;;;;;;;;;;;5067399;28;19909;-68
2023/05/26 13:00:12;;;;;;;;;;;;;;;;;;5169696;27;19919;-69
2023/05/26 13:02:38;;;;;;;;;;;;;;;;;;5168112;27;20385;-69
2023/05/26 13:05:06;;;;;;;;;;;;;;;;;;5169880;27;19933;-69
2023/05/26 13:08:58;;;;;;;;;;;;;;;;;;5088847;27;20391;-69
2023/05/26 13:13:24;;;;;;;;;;;;;;;;;;5090079;27;19917;-69
2023/05/26 13:15:49;;;;;;;;;;;;;;;;;;5090867;28;20452;-69
2023/05/26 13:18:15;;;;;;;;;;;;;;;;;;5090689;28;19970;-69
2023/05/26 13:22:32;;;;;;;;;;;;;;;;;;5111852;27;20294;-69
2023/05/26 13:24:57;;;;;;;;;;;;;;;;;;5111258;28;19912;-70
2023/05/26 13:27:23;;;;;;;;;;;;;;;;;;5111533;28;20283;-70
2023/05/26 13:29:49;;;;;;;;;;;;;;;;;;5111554;28;19909;-69
2023/05/26 13:32:15;;;;;;;;;;;;;;;;;;5111116;28;19931;-70
2023/05/26 13:35:12;;;;;;;;;;;;;;;;;;5092016;27;19923;-69
2023/05/26 13:37:37;;;;;;;;;;;;;;;;;;5091211;28;19998;-69
2023/05/26 13:40:03;;;;;;;;;;;;;;;;;;5091184;28;19958;-69
2023/05/26 13:42:34;;;;;;;;;;;;;;;;;;5091222;28;19915;-69
2023/05/26 13:45:01;;;;;;;;;;;;;;;;;;5091131;28;20364;-69
2023/05/26 13:47:26;;;;;;;;;;;;;;;;;;5091072;28;19915;-69
2023/05/26 13:49:52;;;;;;;;;;;;;;;;;;5091091;28;19908;-69
2023/05/26 13:52:18;;;;;;;;;;;;;;;;;;5090554;28;19995;-69
2023/05/26 13:54:44;;;;;;;;;;;;;;;;;;5090964;28;19920;-69
2023/05/26 13:57:10;;;;;;;;;;;;;;;;;;5090932;28;19908;-69
2023/05/26 13:59:36;;;;;;;;;;;;;;;;;;5090476;28;19909;-68
2023/05/26 14:02:02;;;;;;;;;;;;;;;;;;5090769;28;19908;-69
2023/05/26 14:04:28;;;;;;;;;;;;;;;;;;5090705;28;19916;-69
2023/05/26 14:06:54;;;;;;;;;;;;;;;;;;5090318;28;20364;-69
2023/05/26 14:09:20;;;;;;;;;;;;;;;;;;5090689;28;19954;-69
2023/05/26 14:11:46;;;;;;;;;;;;;;;;;;5090613;28;19909;-69
2023/05/26 14:14:12;;;;;;;;;;;;;;;;;;5090117;28;19916;-69
2023/05/26 14:16:38;;;;;;;;;;;;;;;;;;5090578;28;19909;-69
2023/05/26 14:19:04;;;;;;;;;;;;;;;;;;5090558;28;19954;-69
2023/05/26 14:21:30;;;;;;;;;;;;;;;;;;5090089;28;19912;-69
2023/05/26 14:23:56;;;;;;;;;;;;;;;;;;5089230;28;20418;-69
2023/05/26 14:26:22;;;;;;;;;;;;;;;;;;5090044;28;20417;-69
2023/05/26 14:28:48;;;;;;;;;;;;;;;;;;5090788;28;19913;-69
2023/05/26 14:31:14;;;;;;;;;;;;;;;;;;5090625;28;19943;-69
2023/05/26 14:33:40;;;;;;;;;;;;;;;;;;5097885;28;20447;-69
2023/05/26 14:38:05;;;;;;;;;;;;;;;;;;5112555;27;19916;-69
2023/05/26 14:40:32;;;;;;;;;;;;;;;;;;5111256;28;20011;-69
2023/05/26 14:42:58;;;;;;;;;;;;;;;;;;5111611;28;19912;-69
2023/05/26 14:47:42;;;;;;;;;;;;;;;;;;5071367;28;19924;-70
2023/05/26 14:50:08;;;;;;;;;;;;;;;;;;5071077;28;20331;-69
2023/05/26 14:52:34;;;;;;;;;;;;;;;;;;5070975;28;19916;-69
2023/05/26 14:55:00;;;;;;;;;;;;;;;;;;5070523;28;19915;-69
2023/05/26 14:57:26;;;;;;;;;;;;;;;;;;5071092;28;20292;-69
2023/05/26 14:59:52;;;;;;;;;;;;;;;;;;5071332;28;19912;-68
2023/05/26 15:04:50;;;;;;;;;;;;;;;;;;5153146;27;20335;-69
2023/05/26 15:07:16;;;;;;;;;;;;;;;;;;5152937;27;19945;-69
2023/05/26 15:11:06;;;;;;;;;;;;;;;;;;5112512;27;19916;-69
2023/05/26 15:13:32;;;;;;;;;;;;;;;;;;5111713;28;20368;-69
2023/05/26 15:15:58;;;;;;;;;;;;;;;;;;5111338;28;19994;-69
2023/05/26 15:23:48;;;;;;;;;;;;;;;;;;5091300;27;19916;-70
2023/05/26 15:27:54;;;;;;;;;;;;;;;;;;5111796;27;19920;-70
2023/05/26 15:30:20;;;;;;;;;;;;;;;;;;5111225;28;19919;-69
2023/05/26 15:33:57;;;;;;;;;;;;;;;;;;5091510;27;19916;-69
2023/05/26 15:36:23;;;;;;;;;;;;;;;;;;5091310;28;20007;-70
2023/05/26 15:38:49;;;;;;;;;;;;;;;;;;5089630;28;19914;-70
2023/05/26 15:41:15;;;;;;;;;;;;;;;;;;5091178;28;19955;-70
2023/05/26 15:43:41;;;;;;;;;;;;;;;;;;5089471;28;20324;-69
2023/05/26 15:46:07;;;;;;;;;;;;;;;;;;5091195;28;19943;-71
2023/05/26 15:48:34;;;;;;;;;;;;;;;;;;5091200;28;19912;-70
2023/05/26 15:53:47;;;;;;;;;;;;;;;;;;5092148;28;20254;-70
2023/05/26 15:56:13;;;;;;;;;;;;;;;;;;5091630;28;19957;-70
2023/05/26 15:58:39;;;;;;;;;;;;;;;;;;5090985;28;19908;-70
2023/05/26 16:01:05;;;;;;;;;;;;;;;;;;5091216;28;19967;-68
2023/05/26 16:05:31;;;;;;;;;;;;;;;;;;5098852;27;2121095;-70
2023/05/26 16:07:57;;;;;;;;;;;;;;;;;;5173617;27;19920;-69
2023/05/26 16:10:44;;;;;;;;;;;;;;;;;;5152874;27;20006;-68
2023/05/26 16:13:10;;;;;;;;;;;;;;;;;;5152378;27;19915;-69
2023/05/26 16:17:56;;;;;;;;;;;;;;;;;;5091567;28;19919;-69
2023/05/26 16:21:18;;;;;;;;;;;;;;;;;;5071518;28;19912;-70
2023/05/26 16:24:36;;;;;;;;;;;;;;;;;;5152974;27;20294;-68
2023/05/26 16:27:02;;;;;;;;;;;;;;;;;;5152403;27;19918;-69
2023/05/26 16:29:28;;;;;;;;;;;;;;;;;;5134298;27;20351;-69
2023/05/26 16:31:54;;;;;;;;;;;;;;;;;;5152679;27;19918;-70
2023/05/26 16:38:10;;;;;;;;;;;;;;;;;;5092155;27;19923;-69
2023/05/26 16:41:57;;;;;;;;;;;;;;;;;;5111293;27;19916;-70
2023/05/26 16:45:48;;;;;;;;;;;;;;;;;;5112036;27;19912;-71
2023/05/26 16:48:14;;;;;;;;;;;;;;;;;;5111219;28;19912;-70
2023/05/26 16:51:47;;;;;;;;;;;;;;;;;;5111884;27;19912;-71
2023/05/26 16:54:13;;;;;;;;;;;;;;;;;;5111387;28;19912;-70
2023/05/26 16:56:39;;;;;;;;;;;;;;;;;;5111691;28;20315;-70
2023/05/26 17:00:45;;;;;;;;;;;;;;;;;;5091476;27;19916;-70
2023/05/26 17:03:11;;;;;;;;;;;;;;;;;;5091040;28;20348;-70
2023/05/26 17:07:03;;;;;;;;;;;;;;;;;;5112075;27;19922;-69
2023/05/26 17:09:29;;;;;;;;;;;;;;;;;;5111453;28;19999;-69
2023/05/26 17:11:55;;;;;;;;;;;;;;;;;;5111588;28;19930;-71
2023/05/26 17:16:44;;;;;;;;;;;;;;;;;;5111450;27;19916;-70
2023/05/26 17:19:10;;;;;;;;;;;;;;;;;;5111814;28;19919;-71
2023/05/26 17:21:36;;;;;;;;;;;;;;;;;;5111586;28;19955;-70
2023/05/26 17:24:02;;;;;;;;;;;;;;;;;;5111259;28;20371;-70
2023/05/26 17:26:28;;;;;;;;;;;;;;;;;;5111481;28;20006;-70
2023/05/26 17:28:54;;;;;;;;;;;;;;;;;;5111543;28;19915;-70
2023/05/26 17:33:18;;;;;;;;;;;;;;;;;;5112358;27;19923;-69
2023/05/26 17:35:44;;;;;;;;;;;;;;;;;;5111677;28;20005;-69
2023/05/26 17:40:59;;;;;;;;;;;;;;;;;;5111685;27;19916;-70
2023/05/26 17:43:25;;;;;;;;;;;;;;;;;;5111248;28;19919;-70
2023/05/26 17:45:51;;;;;;;;;;;;;;;;;;5111666;28;19908;-69
2023/05/26 17:48:48;;;;;;;;;;;;;;;;;;5091752;28;19913;-70
2023/05/26 17:51:35;;;;;;;;;;;;;;;;;;5111530;27;19916;-70
2023/05/26 17:55:52;;;;;;;;;;;;;;;;;;5091293;27;19917;-69
2023/05/26 17:58:18;;;;;;;;;;;;;;;;;;5090439;28;20424;-68
2023/05/26 18:00:45;;;;;;;;;;;;;;;;;;5091133;28;19912;-69
2023/05/26 18:03:11;;;;;;;;;;;;;;;;;;5091092;28;19916;-69
2023/05/26 18:05:37;;;;;;;;;;;;;;;;;;5090619;28;20041;-69
2023/05/26 18:13:10;;;;;;;;;;;;;;;;;;5152316;27;19915;-70
2023/05/26 18:15:36;;;;;;;;;;;;;;;;;;5152837;27;20282;-69
2023/05/26 18:18:02;;;;;;;;;;;;;;;;;;5152792;27;19907;-69
2023/05/26 18:20:28;;;;;;;;;;;;;;;;;;5133795;27;19907;-69
2023/05/26 18:22:57;;;;;;;;;;;;;;;;;;5152739;27;20363;-70
2023/05/26 18:29:12;;;;;;;;;;;;;;;;;;5091408;27;19916;-70
2023/05/26 18:31:38;;;;;;;;;;;;;;;;;;5091136;28;20015;-70
2023/05/26 18:34:08;;;;;;;;;;;;;;;;;;5090916;28;19908;-70
2023/05/26 18:39:22;;;;;;;;;;;;;;;;;;5047792;27;2367119;-69
2023/05/26 18:41:48;;;;;;;;;;;;;;;;;;5131765;28;20347;-70
2023/05/26 18:44:14;;;;;;;;;;;;;;;;;;5132060;28;19968;-70
2023/05/26 18:48:14;;;;;;;;;;;;;;;;;;5152631;27;20365;-69
2023/05/26 18:50:51;;;;;;;;;;;;;;;;;;5153076;27;20010;-70
2023/05/26 18:57:37;;;;;;;;;;;;;;;;;;5152899;27;19922;-70
2023/05/26 19:00:03;;;;;;;;;;;;;;;;;;5152808;27;20010;-70
2023/05/26 19:02:30;;;;;;;;;;;;;;;;;;5152388;27;19994;-69
2023/05/26 19:04:56;;;;;;;;;;;;;;;;;;5152770;27;19976;-69
2023/05/26 19:07:22;;;;;;;;;;;;;;;;;;5152586;27;20359;-69
2023/05/26 19:09:48;;;;;;;;;;;;;;;;;;5152314;27;19907;-69
2023/05/26 19:12:14;;;;;;;;;;;;;;;;;;5152490;27;19994;-70
2023/05/26 19:17:02;;;;;;;;;;;;;;;;;;5111599;27;19916;-70
2023/05/26 19:20:05;;;;;;;;;;;;;;;;;;5091350;27;19917;-68
2023/05/26 19:22:31;;;;;;;;;;;;;;;;;;5090904;28;19983;-71
2023/05/26 19:26:12;;;;;;;;;;;;;;;;;;5111697;27;19916;-69
2023/05/26 19:32:43;;;;;;;;;;;;;;;;;;5090598;27;20383;-71
2023/05/26 19:35:09;;;;;;;;;;;;;;;;;;5091098;28;19999;-70
2023/05/26 19:42:29;;;;;;;;;;;;;;;;;;5092065;27;20094;-70
2023/05/26 19:44:55;;;;;;;;;;;;;;;;;;5090959;28;19918;-70
2023/05/26 19:47:21;;;;;;;;;;;;;;;;;;5091250;28;19944;-69
2023/05/26 19:50:16;;;;;;;;;;;;;;;;;;5111472;27;19916;-70
2023/05/26 19:52:41;;;;;;;;;;;;;;;;;;5111776;28;19944;-73
2023/05/26 19:56:21;;;;;;;;;;;;;;;;;;5111645;27;19916;-69
2023/05/26 19:58:47;;;;;;;;;;;;;;;;;;5111262;28;20024;-71
2023/05/26 20:01:13;;;;;;;;;;;;;;;;;;5111552;28;20397;-70
2023/05/26 20:03:39;;;;;;;;;;;;;;;;;;5111783;28;19966;-69
2023/05/26 20:06:05;;;;;;;;;;;;;;;;;;5111289;28;19909;-70
2023/05/26 20:08:32;;;;;;;;;;;;;;;;;;5111441;28;20268;-70
2023/05/26 20:10:58;;;;;;;;;;;;;;;;;;5111203;28;19908;-70
2023/05/26 20:13:24;;;;;;;;;;;;;;;;;;5111433;28;20387;-70
2023/05/26 20:15:50;;;;;;;;;;;;;;;;;;5111164;28;19920;-70
2023/05/26 20:18:16;;;;;;;;;;;;;;;;;;5110849;28;19941;-70
2023/05/26 20:25:14;;;;;;;;;;;;;;;;;;5091292;27;19916;-69
2023/05/26 20:30:18;;;;;;;;;;;;;;;;;;5153419;27;20367;-69
2023/05/26 20:32:44;;;;;;;;;;;;;;;;;;5152466;27;19911;-70
2023/05/26 20:35:10;;;;;;;;;;;;;;;;;;5152816;27;19999;-70
2023/05/26 20:37:36;;;;;;;;;;;;;;;;;;5153057;27;19911;-69
2023/05/26 20:40:02;;;;;;;;;;;;;;;;;;5152346;27;20459;-69
2023/05/26 20:44:50;;;;;;;;;;;;;;;;;;5092184;27;19912;-70
2023/05/26 20:47:16;;;;;;;;;;;;;;;;;;5090843;28;20326;-69
2023/05/26 20:49:42;;;;;;;;;;;;;;;;;;5091307;28;19912;-69
2023/05/26 20:52:08;;;;;;;;;;;;;;;;;;5091431;28;19913;-70
2023/05/26 20:57:41;;;;;;;;;;;;;;;;;;5091536;27;19923;-69
2023/05/26 21:04:16;;;;;;;;;;;;;;;;;;5111858;27;19916;-69
2023/05/26 21:13:13;;;;;;;;;;;;;;;;;;5112229;27;19959;-70